Time;durP1;ratioP1;P1;durP2;ratioP2;P2;SDS_P1;SDS_P2;PMS_P1;PMS_P2;Temp;Humidity;BMP_temperature;BMP_pressure;BME280_temperature;BME280_humidity;BME280_pressure;Samples;Min_cycle;Max_cycle;Signal;HPM_P1;HPM_P2
2022/05/11 00:00:49;;;;;;;0.00;0.00;;;17.50;87.70;;;;;;4996466;28;20345;-76
2022/05/11 00:03:15;;;;;;;;;;;17.50;87.70;;;;;;5013215;28;20172;-77
2022/05/11 00:05:40;;;;;;;0.00;0.00;;;17.40;87.90;;;;;;4998694;28;19984;-78
2022/05/11 00:08:07;;;;;;;0.00;0.00;;;17.40;88.10;;;;;;4998453;28;20130;-77
2022/05/11 00:10:33;;;;;;;0.00;0.00;;;17.40;88.60;;;;;;5013355;28;20029;-77
2022/05/11 00:13:00;;;;;;;0.00;0.00;;;17.30;88.70;;;;;;4997619;28;20290;-77
2022/05/11 00:15:26;;;;;;;0.00;0.00;;;17.30;88.90;;;;;;4997588;28;20061;-77
2022/05/11 00:17:52;;;;;;;0.00;0.00;;;17.30;89.10;;;;;;4999710;28;20041;-76
2022/05/11 00:20:37;;;;;;;0.00;0.00;;;17.30;89.10;;;;;;5000882;28;20298;-78
2022/05/11 00:23:03;;;;;;;0.00;0.00;;;17.20;89.30;;;;;;5000929;28;20025;-76
2022/05/11 00:25:29;;;;;;;0.00;0.00;;;17.20;89.50;;;;;;5000282;28;20026;-77
2022/05/11 00:27:57;;;;;;;0.00;0.00;;;17.20;90.00;;;;;;5001344;28;20056;-76
2022/05/11 00:30:24;;;;;;;0.00;0.00;;;17.10;90.00;;;;;;5000998;28;20252;-77
2022/05/11 00:32:56;;;;;;;0.00;0.00;;;17.10;90.00;;;;;;5001304;28;20249;-76
2022/05/11 00:35:23;;;;;;;0.00;0.00;;;17.10;90.10;;;;;;4999729;28;20018;-77
2022/05/11 00:37:49;;;;;;;0.00;0.00;;;17.10;90.30;;;;;;5000940;28;20022;-77
2022/05/11 00:40:17;;;;;;;0.00;0.00;;;17.00;90.40;;;;;;4999681;28;20277;-76
2022/05/11 00:42:43;;;;;;;0.00;0.00;;;17.00;90.60;;;;;;5001212;28;20030;-76
2022/05/11 00:45:09;;;;;;;0.00;0.00;;;17.00;90.60;;;;;;5000679;28;20081;-76
2022/05/11 00:47:44;;;;;;;0.00;0.00;;;17.00;90.70;;;;;;5016259;28;20046;-75
2022/05/11 00:50:16;;;;;;;0.00;0.00;;;17.00;90.80;;;;;;4999751;28;20022;-77
2022/05/11 00:52:52;;;;;;;0.00;0.00;;;16.90;90.90;;;;;;5000241;28;20026;-77
2022/05/11 00:55:33;;;;;;;0.00;0.00;;;16.80;91.00;;;;;;4983725;28;20033;-77
2022/05/11 00:58:10;;;;;;;0.00;0.00;;;16.80;91.10;;;;;;5000803;28;20018;-77
2022/05/11 01:00:36;;;;;;;0.00;0.00;;;16.70;91.20;;;;;;5000762;28;20034;-76
2022/05/11 01:03:09;;;;;;;0.00;0.00;;;16.70;91.20;;;;;;5000574;28;20026;-74
2022/05/11 01:05:35;;;;;;;0.00;0.00;;;16.70;91.00;;;;;;5000874;28;20124;-75
2022/05/11 01:08:01;;;;;;;0.00;0.00;;;16.60;91.00;;;;;;5000751;28;20022;-76
2022/05/11 01:10:30;;;;;;;0.00;0.00;;;16.70;91.20;;;;;;4999980;28;20033;-77
2022/05/11 01:12:59;;;;;;;0.00;0.00;;;16.70;91.40;;;;;;5015547;28;20229;-77
2022/05/11 01:15:29;;;;;;;0.00;0.00;;;16.70;91.40;;;;;;4998744;28;20026;-77
2022/05/11 01:17:55;;;;;;;0.00;0.00;;;16.70;91.50;;;;;;5000316;28;20197;-77
2022/05/11 01:20:23;;;;;;;0.00;0.00;;;16.70;91.50;;;;;;4999908;28;20056;-77
2022/05/11 01:23:16;;;;;;;0.00;0.00;;;16.70;91.50;;;;;;5000723;28;20022;-77
2022/05/11 01:25:42;;;;;;;0.00;0.00;;;16.70;91.70;;;;;;4972876;28;20333;-77
2022/05/11 01:28:14;;;;;;;0.00;0.00;;;16.60;91.80;;;;;;4982372;28;20022;-76
2022/05/11 01:30:43;;;;;;;0.00;0.00;;;16.60;92.00;;;;;;5000300;28;20022;-76
2022/05/11 01:33:14;;;;;;;0.00;0.00;;;16.50;92.40;;;;;;4999633;28;20042;-76
2022/05/11 01:36:11;;;;;;;0.00;0.00;;;16.50;91.90;;;;;;5015567;28;20026;-76
2022/05/11 01:38:49;;;;;;;0.00;0.00;;;16.50;92.10;;;;;;5000048;28;20027;-76
2022/05/11 01:41:23;;;;;;;0.00;0.00;;;16.50;92.00;;;;;;4999647;28;20349;-76
2022/05/11 01:43:50;;;;;;;0.00;0.00;;;16.40;92.50;;;;;;5000134;28;20038;-76
2022/05/11 01:46:16;;;;;;;0.00;0.00;;;16.40;92.50;;;;;;4999234;28;20033;-76
2022/05/11 01:48:43;;;;;;;0.00;0.00;;;16.40;92.70;;;;;;5015044;28;20034;-76
2022/05/11 01:51:11;;;;;;;0.00;0.00;;;16.30;92.80;;;;;;5014655;28;20022;-76
2022/05/11 01:53:37;;;;;;;0.00;0.00;;;16.30;92.90;;;;;;5000181;28;20026;-76
2022/05/11 01:56:03;;;;;;;0.00;0.00;;;16.30;93.00;;;;;;5014805;28;20037;-76
2022/05/11 01:58:29;;;;;;;0.00;0.00;;;16.20;93.20;;;;;;4999297;28;20022;-76
2022/05/11 02:00:55;;;;;;;0.00;0.00;;;16.20;93.40;;;;;;4999431;28;20085;-76
2022/05/11 02:03:21;;;;;;;0.00;0.00;;;16.20;93.40;;;;;;4999150;28;20318;-76
2022/05/11 02:08:37;;;;;;;;;;;16.10;93.50;;;;;;5000364;28;20057;-77
2022/05/11 02:11:03;;;;;;;0.00;0.00;;;16.10;93.60;;;;;;4999705;28;19905;-77
2022/05/11 02:13:30;;;;;;;0.00;0.00;;;16.00;93.70;;;;;;4999093;28;20034;-76
2022/05/11 02:15:56;;;;;;;0.00;0.00;;;16.00;93.80;;;;;;5001428;28;20069;-76
2022/05/11 02:18:22;;;;;;;0.00;0.00;;;15.90;93.80;;;;;;5002419;28;20030;-78
2022/05/11 02:20:47;;;;;;;0.00;0.00;;;15.90;93.80;;;;;;5002078;28;20037;-76
2022/05/11 02:23:18;;;;;;;0.00;0.00;;;16.00;94.00;;;;;;4998269;28;20022;-76
2022/05/11 02:25:46;;;;;;;0.00;0.00;;;16.00;93.90;;;;;;4997966;28;20272;-76
2022/05/11 02:28:12;;;;;;;0.00;0.00;;;16.00;94.00;;;;;;4998543;28;20149;-76
2022/05/11 02:30:39;;;;;;;0.00;0.00;;;16.00;94.10;;;;;;4999324;28;20018;-77
2022/05/11 02:33:06;;;;;;;0.00;0.00;;;15.90;94.20;;;;;;4998538;28;20025;-75
2022/05/11 02:35:32;;;;;;;0.00;0.00;;;15.90;94.30;;;;;;4998058;28;20080;-79
2022/05/11 02:38:01;;;;;;;0.00;0.00;;;15.90;94.50;;;;;;4999061;28;20293;-80
2022/05/11 02:40:33;;;;;;;0.00;0.00;;;15.80;94.60;;;;;;4999004;28;20028;-77
2022/05/11 02:43:01;;;;;;;0.00;0.00;;;15.80;94.90;;;;;;4999923;28;20259;-80
2022/05/11 02:45:27;;;;;;;0.00;0.00;;;15.80;95.10;;;;;;5000199;28;20084;-77
2022/05/11 02:47:56;;;;;;;0.00;0.00;;;15.80;95.20;;;;;;4998590;28;20026;-83
2022/05/11 02:50:25;;;;;;;0.00;0.00;;;15.70;95.20;;;;;;4981689;28;20018;-82
2022/05/11 02:52:51;;;;;;;0.00;0.00;;;15.70;95.20;;;;;;4998278;28;20041;-77
2022/05/11 02:55:17;;;;;;;0.00;0.00;;;15.70;95.50;;;;;;4998616;28;20297;-82
2022/05/11 02:57:42;;;;;;;0.00;0.00;;;15.60;95.50;;;;;;4992149;28;20018;-76
2022/05/11 03:00:12;;;;;;;0.00;0.00;;;15.60;95.70;;;;;;4998374;28;20030;-81
2022/05/11 03:02:38;;;;;;;0.00;0.00;;;15.60;95.70;;;;;;4999463;28;20010;-81
2022/05/11 03:05:05;;;;;;;0.00;0.00;;;15.60;95.60;;;;;;4987345;28;20320;-77
2022/05/11 03:07:31;;;;;;;0.00;0.00;;;15.60;95.80;;;;;;4998068;28;20090;-80
2022/05/11 03:09:57;;;;;;;0.00;0.00;;;15.60;95.90;;;;;;5014258;28;20026;-81
2022/05/11 03:12:22;;;;;;;0.00;0.00;;;15.60;95.80;;;;;;4998492;28;20029;-80
2022/05/11 03:14:54;;;;;;;0.00;0.00;;;15.60;96.00;;;;;;4999236;28;20030;-82
2022/05/11 03:17:21;;;;;;;0.00;0.00;;;15.60;96.20;;;;;;4996551;28;20085;-81
2022/05/11 03:19:47;;;;;;;0.00;0.00;;;15.50;96.40;;;;;;4996286;28;20011;-81
2022/05/11 03:22:13;;;;;;;0.00;0.00;;;15.50;96.40;;;;;;4998752;28;20045;-79
2022/05/11 03:24:38;;;;;;;0.00;0.00;;;15.50;96.60;;;;;;4999679;28;20030;-82
2022/05/11 03:27:05;;;;;;;0.00;0.00;;;15.50;97.00;;;;;;4998648;28;20049;-79
2022/05/11 03:29:31;;;;;;;0.00;0.00;;;15.50;96.90;;;;;;4997567;28;20110;-81
2022/05/11 03:34:41;;;;;;;0.00;0.00;;;15.40;97.10;;;;;;4998665;28;20136;-76
2022/05/11 03:37:14;;;;;;;0.00;0.00;;;15.30;97.20;;;;;;4998783;28;20019;-81
2022/05/11 03:39:40;;;;;;;0.00;0.00;;;15.30;97.40;;;;;;4998067;28;20025;-79
2022/05/11 03:42:08;;;;;;;0.00;0.00;;;15.30;97.50;;;;;;4996789;28;20022;-80
2022/05/11 03:44:34;;;;;;;0.00;0.00;;;15.30;97.60;;;;;;4998636;28;20022;-81
2022/05/11 03:47:00;;;;;;;0.00;0.00;;;15.30;97.80;;;;;;4997571;28;20114;-80
2022/05/11 03:49:27;;;;;;;0.00;0.00;;;15.30;97.80;;;;;;5012925;28;20025;-80
2022/05/11 03:51:53;;;;;;;0.00;0.00;;;15.30;98.00;;;;;;4997743;28;20034;-76
2022/05/11 03:54:19;;;;;;;0.00;0.00;;;15.30;98.00;;;;;;5017285;28;20030;-81
2022/05/11 03:56:45;;;;;;;0.00;0.00;;;15.40;98.00;;;;;;5001723;28;20321;-75
2022/05/11 03:59:10;;;;;;;0.00;0.00;;;15.40;98.20;;;;;;5016994;28;20060;-77
2022/05/11 04:01:36;;;;;;;0.00;0.00;;;15.40;98.40;;;;;;5003689;28;20293;-80
2022/05/11 04:04:02;;;;;;;0.00;0.00;;;15.40;98.40;;;;;;5019022;28;20042;-82
2022/05/11 04:06:29;;;;;;;0.00;0.00;;;15.40;98.50;;;;;;5001229;28;20202;-82
2022/05/11 04:08:55;;;;;;;0.00;0.00;;;15.40;98.70;;;;;;5001263;28;20302;-76
2022/05/11 04:11:22;;;;;;;0.00;0.00;;;15.40;98.80;;;;;;5016832;28;20022;-83
2022/05/11 04:13:49;;;;;;;0.00;0.00;;;15.40;98.90;;;;;;5000935;28;20305;-82
2022/05/11 04:16:17;;;;;;;0.00;0.00;;;15.40;99.10;;;;;;5016629;28;20112;-77
2022/05/11 04:18:43;;;;;;;0.00;0.00;;;15.40;99.30;;;;;;5000887;28;20201;-76
2022/05/11 04:21:09;;;;;;;0.00;0.00;;;15.40;99.40;;;;;;5001048;28;20026;-81
2022/05/11 04:23:35;;;;;;;0.00;0.00;;;15.40;99.40;;;;;;5000552;28;20298;-79
2022/05/11 04:26:01;;;;;;;0.00;0.00;;;15.40;99.50;;;;;;5001303;28;20227;-80
2022/05/11 04:28:27;;;;;;;0.00;0.00;;;15.40;99.50;;;;;;5016557;28;20022;-79
2022/05/11 04:31:04;;;;;;;0.00;0.00;;;15.40;99.50;;;;;;5001608;28;20073;-76
2022/05/11 04:33:30;;;;;;;0.00;0.00;;;15.40;99.50;;;;;;5001537;28;20266;-80
2022/05/11 04:35:56;;;;;;;0.00;0.00;;;15.40;99.50;;;;;;5001011;28;20050;-79
2022/05/11 04:38:22;;;;;;;0.00;0.00;;;15.50;99.60;;;;;;5001700;28;20030;-80
2022/05/11 04:40:48;;;;;;;0.00;0.00;;;15.50;99.50;;;;;;5001843;28;20356;-80
2022/05/11 04:43:15;;;;;;;0.00;0.00;;;15.50;99.70;;;;;;5001447;28;20023;-80
2022/05/11 04:45:42;;;;;;;0.00;0.00;;;15.50;99.60;;;;;;5001960;28;20033;-78
2022/05/11 04:48:09;;;;;;;0.00;0.00;;;15.50;99.50;;;;;;5016430;28;20088;-78
2022/05/11 04:50:37;;;;;;;0.00;0.00;;;15.60;99.60;;;;;;5001899;28;20026;-75
2022/05/11 04:53:04;;;;;;;0.00;0.00;;;15.60;99.60;;;;;;5000748;28;20178;-80
2022/05/11 04:55:48;;;;;;;0.00;0.00;;;15.70;99.50;;;;;;5016218;28;20153;-79
2022/05/11 04:58:14;;;;;;;0.00;0.00;;;15.70;99.50;;;;;;4999517;28;20106;-78
2022/05/11 05:00:40;;;;;;;0.00;0.00;;;15.70;99.60;;;;;;5000204;28;20022;-75
2022/05/11 05:03:10;;;;;;;0.00;0.00;;;15.70;99.50;;;;;;5000122;28;20018;-78
2022/05/11 05:05:36;;;;;;;0.00;0.00;;;15.80;99.60;;;;;;5000839;28;20026;-80
2022/05/11 05:08:02;;;;;;;0.00;0.00;;;15.80;99.60;;;;;;5000618;28;20054;-80
2022/05/11 05:10:28;;;;;;;0.00;0.00;;;15.80;99.60;;;;;;4999993;28;20297;-80
2022/05/11 05:12:54;;;;;;;0.00;0.00;;;15.90;99.60;;;;;;5000992;28;20023;-78
2022/05/11 05:15:20;;;;;;;0.00;0.00;;;15.90;99.50;;;;;;5000788;28;20049;-76
2022/05/11 05:17:45;;;;;;;0.00;0.00;;;15.90;99.30;;;;;;5015924;28;20049;-79
2022/05/11 05:20:14;;;;;;;0.00;0.00;;;16.00;99.50;;;;;;5000042;28;20179;-78
2022/05/11 05:22:41;;;;;;;0.00;0.00;;;16.00;99.50;;;;;;5003034;28;20045;-77
2022/05/11 05:25:07;;;;;;;0.00;0.00;;;16.00;99.50;;;;;;5000308;28;20034;-83
2022/05/11 05:27:33;;;;;;;0.00;0.00;;;16.10;99.50;;;;;;5016246;28;20022;-82
2022/05/11 05:32:44;;;;;;;0.00;0.00;;;16.20;99.40;;;;;;5000788;28;20258;-82
2022/05/11 05:35:13;;;;;;;0.00;0.00;;;16.30;99.40;;;;;;5000251;28;20093;-79
2022/05/11 05:37:39;;;;;;;0.00;0.00;;;16.30;99.40;;;;;;5015532;28;20232;-79
2022/05/11 05:40:06;;;;;;;0.00;0.00;;;16.40;99.60;;;;;;4999955;28;20062;-80
2022/05/11 05:42:32;;;;;;;0.00;0.00;;;16.40;99.50;;;;;;5000454;28;20023;-77
2022/05/11 05:44:57;;;;;;;0.00;0.00;;;16.50;99.40;;;;;;5014544;28;20080;-78
2022/05/11 05:47:23;;;;;;;0.00;0.00;;;16.50;99.30;;;;;;5000306;28;20042;-81
2022/05/11 05:49:49;;;;;;;0.00;0.00;;;16.50;99.30;;;;;;5000261;28;20038;-78
2022/05/11 05:52:23;;;;;;;0.00;0.00;;;16.60;99.30;;;;;;4999957;28;20095;-78
2022/05/11 05:54:50;;;;;;;0.00;0.00;;;16.60;99.40;;;;;;4998832;28;20022;-79
2022/05/11 05:57:16;;;;;;;0.00;0.00;;;16.70;99.50;;;;;;4998305;28;20187;-78
2022/05/11 05:59:43;;;;;;;0.00;0.00;;;16.80;99.40;;;;;;4999674;28;20018;-81
2022/05/11 06:02:13;;;;;;;0.00;0.00;;;16.90;99.50;;;;;;5014511;28;20029;-79
2022/05/11 06:04:41;;;;;;;0.00;0.00;;;17.00;99.40;;;;;;4999909;28;20077;-82
2022/05/11 06:07:07;;;;;;;0.00;0.00;;;17.10;99.20;;;;;;4999015;28;20026;-79
2022/05/11 06:09:33;;;;;;;0.00;0.00;;;17.20;98.90;;;;;;5014835;28;20125;-78
2022/05/11 06:11:59;;;;;;;0.00;0.00;;;17.30;98.30;;;;;;4999079;28;20190;-78
2022/05/11 06:14:25;;;;;;;0.00;0.00;;;17.50;98.20;;;;;;4998280;28;20254;-79
2022/05/11 06:16:53;;;;;;;0.00;0.00;;;17.90;98.70;;;;;;5014643;28;20356;-78
2022/05/11 06:19:19;;;;;;;0.00;0.00;;;18.60;98.30;;;;;;4998732;28;20056;-78
2022/05/11 06:21:47;;;;;;;0.00;0.00;;;19.20;96.50;;;;;;4999201;28;20417;-78
2022/05/11 06:24:13;;;;;;;0.00;0.00;;;19.90;96.10;;;;;;4999253;28;20323;-78
2022/05/11 06:26:39;;;;;;;0.00;0.00;;;20.50;94.60;;;;;;4998198;28;20030;-78
2022/05/11 06:29:05;;;;;;;0.00;0.00;;;21.00;93.70;;;;;;5013661;28;20312;-77
2022/05/11 06:31:31;;;;;;;0.00;0.00;;;21.50;92.60;;;;;;4999061;28;20320;-78
2022/05/11 06:33:57;;;;;;;0.00;0.00;;;22.00;92.00;;;;;;5013319;28;20023;-77
2022/05/11 06:36:26;;;;;;;0.00;0.00;;;22.40;90.30;;;;;;4999250;28;20033;-79
2022/05/11 06:38:55;;;;;;;0.00;0.00;;;22.90;90.70;;;;;;4998882;28;20018;-80
2022/05/11 06:41:25;;;;;;;0.00;0.00;;;23.30;89.00;;;;;;4998607;28;20061;-79
2022/05/11 06:43:52;;;;;;;0.00;0.00;;;23.50;82.90;;;;;;4999483;28;20026;-79
2022/05/11 06:46:18;;;;;;;0.00;0.00;;;23.80;83.90;;;;;;4997383;28;20026;-79
2022/05/11 06:48:45;;;;;;;0.00;0.00;;;24.00;83.10;;;;;;4999039;28;20050;-79
2022/05/11 06:51:15;;;;;;;0.00;0.00;;;24.20;81.50;;;;;;5014191;28;20072;-79
2022/05/11 06:59:20;;;;;;;0.00;0.00;;;24.90;76.40;;;;;;4998213;28;20217;-79
2022/05/11 07:01:50;;;;;;;0.00;0.00;;;25.30;73.00;;;;;;4998242;28;20022;-78
2022/05/11 07:04:16;;;;;;;0.00;0.00;;;25.00;71.50;;;;;;4996503;28;20205;-76
2022/05/11 07:06:42;;;;;;;0.00;0.00;;;24.70;69.90;;;;;;4998599;28;20310;-77
2022/05/11 07:09:08;;;;;;;0.00;0.00;;;24.10;75.40;;;;;;4985462;28;20034;-79
2022/05/11 07:14:17;;;;;;;0.00;0.00;;;23.30;78.70;;;;;;4996927;28;20241;-78
2022/05/11 07:16:43;;;;;;;0.00;0.00;;;23.00;80.10;;;;;;4998533;28;20018;-78
2022/05/11 07:19:09;;;;;;;0.00;0.00;;;22.80;76.50;;;;;;4998141;28;20027;-78
2022/05/11 07:21:35;;;;;;;0.00;0.00;;;22.70;80.20;;;;;;4997290;28;20085;-78
2022/05/11 07:24:01;;;;;;;0.00;0.00;;;22.60;82.10;;;;;;4997563;28;20025;-78
2022/05/11 07:26:26;;;;;;;0.00;0.00;;;22.40;84.40;;;;;;4997653;28;20025;-79
2022/05/11 07:28:52;;;;;;;0.00;0.00;;;22.40;85.00;;;;;;5013373;28;20273;-79
2022/05/11 07:31:18;;;;;;;0.00;0.00;;;22.30;85.50;;;;;;4995413;28;20025;-78
2022/05/11 07:33:44;;;;;;;0.00;0.00;;;22.20;86.10;;;;;;5001059;28;20061;-77
2022/05/11 07:36:10;;;;;;;0.00;0.00;;;22.20;85.90;;;;;;4996529;28;20022;-78
2022/05/11 07:38:38;;;;;;;0.00;0.00;;;22.20;85.80;;;;;;4998281;28;20026;-77
2022/05/11 07:41:07;;;;;;;0.00;0.00;;;22.20;86.30;;;;;;4996877;28;20102;-78
2022/05/11 07:43:33;;;;;;;0.00;0.00;;;22.10;86.40;;;;;;4998978;28;20155;-78
2022/05/11 07:45:59;;;;;;;0.00;0.00;;;22.20;83.10;;;;;;4998207;28;20052;-78
2022/05/11 07:48:25;;;;;;;0.00;0.00;;;22.30;82.90;;;;;;4998875;28;20037;-76
2022/05/11 07:50:51;;;;;;;0.00;0.00;;;22.30;78.10;;;;;;4998826;28;20026;-77
2022/05/11 07:53:17;;;;;;;0.00;0.00;;;22.30;77.80;;;;;;5000078;28;20117;-79
2022/05/11 07:55:43;;;;;;;0.00;0.00;;;22.30;78.20;;;;;;5000186;28;20080;-78
2022/05/11 08:00:58;;;;;;;0.00;0.00;;;22.40;80.70;;;;;;4998331;28;20053;-77
2022/05/11 08:03:25;;;;;;;0.00;0.00;;;22.50;78.40;;;;;;5013295;28;20077;-76
2022/05/11 08:05:51;;;;;;;0.00;0.00;;;22.50;80.00;;;;;;4996857;28;20030;-77
2022/05/11 08:08:16;;;;;;;0.00;0.00;;;22.50;79.00;;;;;;4997227;28;20224;-78
2022/05/11 08:10:45;;;;;;;0.00;0.00;;;22.60;75.20;;;;;;4996307;28;20069;-76
2022/05/11 08:13:12;;;;;;;0.00;0.00;;;22.70;74.70;;;;;;4997540;28;20021;-77
2022/05/11 08:15:44;;;;;;;0.00;0.00;;;22.70;75.70;;;;;;4998245;28;20026;-77
2022/05/11 08:18:10;;;;;;;0.00;0.00;;;22.70;74.90;;;;;;4997899;28;20050;-78
2022/05/11 08:20:41;;;;;;;0.00;0.00;;;22.70;75.60;;;;;;4997254;28;20101;-81
2022/05/11 08:23:08;;;;;;;0.00;0.00;;;22.80;78.70;;;;;;4998209;28;20034;-80
2022/05/11 08:25:35;;;;;;;0.00;0.00;;;22.80;76.90;;;;;;4997962;28;20077;-79
2022/05/11 08:28:02;;;;;;;0.00;0.00;;;23.00;76.60;;;;;;4995929;28;20033;-79
2022/05/11 08:33:19;;;;;;;;;;;23.80;72.80;;;;;;4997371;28;20025;-79
2022/05/11 08:35:45;;;;;;;0.00;0.00;;;24.50;71.80;;;;;;4996541;28;19901;-80
2022/05/11 08:41:10;;;;;;;0.00;0.00;;;26.80;72.30;;;;;;5000929;28;20098;-79
2022/05/11 08:43:36;;;;;;;0.00;0.00;;;28.80;67.80;;;;;;5001075;28;20045;-80
2022/05/11 08:46:14;;;;;;;0.00;0.00;;;29.90;62.00;;;;;;5000396;28;20026;-80
2022/05/11 08:49:03;;;;;;;0.00;0.00;;;30.80;59.20;;;;;;5001569;28;20041;-79
2022/05/11 08:52:01;;;;;;;0.00;0.00;;;32.30;59.70;;;;;;5000675;28;20270;-78
2022/05/11 08:54:32;;;;;;;0.00;0.00;;;33.30;52.80;;;;;;5001665;28;20018;-79
2022/05/11 08:56:59;;;;;;;0.00;0.00;;;34.20;55.00;;;;;;5000646;28;20029;-79
2022/05/11 08:59:28;;;;;;;0.00;0.00;;;34.60;50.10;;;;;;5001750;28;20332;-81
2022/05/11 09:02:00;;;;;;;0.00;0.00;;;35.20;51.40;;;;;;5002740;28;20026;-80
2022/05/11 09:04:46;;;;;;;0.00;0.00;;;35.90;48.00;;;;;;5001519;28;20050;-79
2022/05/11 09:07:11;;;;;;;0.00;0.00;;;35.80;48.90;;;;;;5000056;28;20341;-77
2022/05/11 09:09:38;;;;;;;0.00;0.00;;;35.40;47.30;;;;;;5001041;28;20030;-78
2022/05/11 09:12:06;;;;;;;0.00;0.00;;;35.10;47.60;;;;;;5000751;28;20073;-79
2022/05/11 09:14:37;;;;;;;0.00;0.00;;;34.70;45.70;;;;;;5001577;28;20090;-78
2022/05/11 09:17:04;;;;;;;0.00;0.00;;;35.40;48.60;;;;;;5000875;28;20045;-77
2022/05/11 09:19:32;;;;;;;0.00;0.00;;;35.50;47.40;;;;;;5000686;28;20033;-78
2022/05/11 09:22:07;;;;;;;0.00;0.00;;;36.30;46.10;;;;;;4999667;28;20018;-78
2022/05/11 09:24:56;;;;;;;0.00;0.00;;;36.30;46.60;;;;;;5015135;28;20298;-78
2022/05/11 09:27:26;;;;;;;0.00;0.00;;;37.30;46.80;;;;;;4999988;28;20069;-77
2022/05/11 09:30:15;;;;;;;0.00;0.00;;;38.20;43.80;;;;;;5000994;28;20026;-77
2022/05/11 09:32:44;;;;;;;0.00;0.00;;;39.50;43.30;;;;;;5001035;28;20034;-78
2022/05/11 09:35:32;;;;;;;0.00;0.00;;;38.60;41.80;;;;;;5000001;28;20213;-78
2022/05/11 09:38:21;;;;;;;0.00;0.00;;;39.10;44.70;;;;;;5015841;28;20063;-78
2022/05/11 09:41:18;;;;;;;0.00;0.00;;;39.40;41.70;;;;;;4987691;28;20275;-78
2022/05/11 09:43:46;;;;;;;0.00;0.00;;;39.90;41.90;;;;;;4993773;28;20037;-79
2022/05/11 09:46:27;;;;;;;0.00;0.00;;;40.20;41.10;;;;;;5014933;28;20033;-79
2022/05/11 09:48:58;;;;;;;0.00;0.00;;;40.90;42.60;;;;;;5000438;28;20082;-79
2022/05/11 09:51:36;;;;;;;0.00;0.00;;;40.90;40.50;;;;;;4999799;28;20046;-79
2022/05/11 09:54:02;;;;;;;0.00;0.00;;;41.50;38.20;;;;;;5000268;28;20025;-79
2022/05/11 09:56:36;;;;;;;;;;;40.10;39.00;;;;;;5000327;28;20317;-79
2022/05/11 09:59:29;;;;;;;0.00;0.00;;;40.40;39.20;;;;;;5015076;28;19923;-79
2022/05/11 10:02:22;;;;;;;0.00;0.00;;;41.40;39.30;;;;;;5000140;28;20023;-77
2022/05/11 10:05:17;;;;;;;0.00;0.00;;;41.70;38.40;;;;;;4999545;28;20096;-79
2022/05/11 10:08:28;;;;;;;0.00;0.00;;;42.00;40.40;;;;;;4999949;28;20026;-78
2022/05/11 10:11:06;;;;;;;0.00;0.00;;;42.50;39.50;;;;;;4986975;28;20097;-78
2022/05/11 10:13:32;;;;;;;0.00;0.00;;;41.90;38.50;;;;;;4993109;28;20022;-79
2022/05/11 10:22:15;;;;;;;0.00;0.00;;;40.60;36.80;;;;;;4998797;28;20033;-78
2022/05/11 10:25:10;;;;;;;0.00;0.00;;;39.80;36.40;;;;;;4998425;28;20022;-78
2022/05/11 10:27:54;;;;;;;0.00;0.00;;;40.70;39.50;;;;;;4996172;28;20035;-79
2022/05/11 10:30:35;;;;;;;0.00;0.00;;;40.80;37.40;;;;;;4998713;28;20018;-78
2022/05/11 10:33:45;;;;;;;0.00;0.00;;;41.60;38.30;;;;;;4998704;28;20129;-79
2022/05/11 10:36:25;;;;;;;0.00;0.00;;;40.20;37.70;;;;;;4965507;28;20093;-78
2022/05/11 10:39:09;;;;;;;0.00;0.00;;;38.70;37.30;;;;;;4999062;28;20029;-78
2022/05/11 10:42:20;;;;;;;0.00;0.00;;;39.30;39.40;;;;;;5014072;28;20308;-78
2022/05/11 10:45:16;;;;;;;0.00;0.00;;;39.10;38.80;;;;;;4996574;28;20018;-77
2022/05/11 10:48:12;;;;;;;0.00;0.00;;;38.40;38.10;;;;;;4997730;28;20125;-78
2022/05/11 10:51:05;;;;;;;0.00;0.00;;;37.70;39.40;;;;;;4998039;28;20022;-77
2022/05/11 10:53:46;;;;;;;0.00;0.00;;;38.40;40.60;;;;;;5014432;28;20019;-78
2022/05/11 10:56:28;;;;;;;0.00;0.00;;;39.40;39.20;;;;;;4998293;28;20048;-78
2022/05/11 10:59:21;;;;;;;0.00;0.00;;;38.80;39.20;;;;;;5014145;28;20137;-78
2022/05/11 11:02:15;;;;;;;0.00;0.00;;;39.60;40.20;;;;;;4997765;28;20093;-79
2022/05/11 11:05:35;;;;;;;0.00;0.00;;;40.50;39.30;;;;;;4998659;28;20315;-78
2022/05/11 11:08:22;;;;;;;0.00;0.00;;;40.50;37.70;;;;;;4937891;29;20322;-78
2022/05/11 11:11:28;;;;;;;0.00;0.00;;;41.30;36.60;;;;;;4998817;28;20022;-79
2022/05/11 11:14:01;;;;;;;0.00;0.00;;;40.00;35.20;;;;;;4984303;28;20030;-80
2022/05/11 11:16:37;;;;;;;0.00;0.00;;;36.90;37.80;;;;;;4998773;28;20094;-78
2022/05/11 11:19:05;;;;;;;0.00;0.00;;;36.00;38.00;;;;;;5013311;28;20049;-80
2022/05/11 11:21:32;;;;;;;0.00;0.00;;;34.30;39.50;;;;;;4998795;28;20060;-77
2022/05/11 11:24:25;;;;;;;0.00;0.00;;;33.60;41.80;;;;;;4998529;28;20049;-76
2022/05/11 11:26:54;;;;;;;0.00;0.00;;;32.40;41.90;;;;;;4998650;28;20364;-77
2022/05/11 11:29:24;;;;;;;0.00;0.00;;;31.80;44.80;;;;;;4997155;28;20098;-77
2022/05/11 11:31:56;;;;;;;0.00;0.00;;;32.50;45.60;;;;;;4998839;28;20022;-78
2022/05/11 11:34:25;;;;;;;0.00;0.00;;;33.60;43.80;;;;;;4991835;28;20018;-79
2022/05/11 11:36:52;;;;;;;0.00;0.00;;;34.30;42.00;;;;;;4997454;28;20026;-79
2022/05/11 11:39:57;;;;;;;0.00;0.00;;;35.60;42.90;;;;;;4996543;28;20019;-78
2022/05/11 11:42:34;;;;;;;0.00;0.00;;;36.20;40.30;;;;;;4997641;28;20065;-78
2022/05/11 11:45:00;;;;;;;0.00;0.00;;;35.90;40.90;;;;;;5012797;28;20046;-78
2022/05/11 11:47:26;;;;;;;0.00;0.00;;;35.60;38.80;;;;;;4998163;28;20035;-79
2022/05/11 11:49:53;;;;;;;;;;;35.00;39.50;;;;;;4999005;28;20089;-78
2022/05/11 11:52:44;;;;;;;0.00;0.00;;;33.80;40.60;;;;;;4997749;28;20125;-78
2022/05/11 11:55:18;;;;;;;0.00;0.00;;;33.10;43.30;;;;;;4997941;28;20272;-78
2022/05/11 11:57:45;;;;;;;0.00;0.00;;;32.80;41.30;;;;;;4998040;28;20114;-78
2022/05/11 12:00:21;;;;;;;0.00;0.00;;;32.00;41.20;;;;;;4998186;28;20015;-77
2022/05/11 12:02:47;;;;;;;0.00;0.00;;;31.60;43.70;;;;;;4998620;28;20018;-77
2022/05/11 12:05:33;;;;;;;0.00;0.00;;;31.40;44.90;;;;;;4998154;28;20050;-78
2022/05/11 12:16:56;;;;;;;0.00;0.00;;;30.00;45.50;;;;;;5001825;28;20245;-79
2022/05/11 12:19:25;;;;;;;0.00;0.00;;;29.70;52.50;;;;;;5002276;28;20045;-77
2022/05/11 12:22:01;;;;;;;0.00;0.00;;;29.20;53.50;;;;;;4995977;28;20320;-77
2022/05/11 12:24:36;;;;;;;0.00;0.00;;;29.10;52.80;;;;;;5002021;28;20022;-78
2022/05/11 12:27:06;;;;;;;0.00;0.00;;;28.70;51.00;;;;;;5016537;28;20117;-76
2022/05/11 12:32:24;;;;;;;0.00;0.00;;;28.10;51.10;;;;;;5000759;28;20025;-78
2022/05/11 12:34:50;;;;;;;0.00;0.00;;;27.80;55.40;;;;;;5016166;28;20101;-76
2022/05/11 12:37:27;;;;;;;0.00;0.00;;;27.60;54.70;;;;;;5015899;28;20096;-77
2022/05/11 12:40:07;;;;;;;0.00;0.00;;;27.20;54.70;;;;;;5001163;28;20022;-76
2022/05/11 12:42:44;;;;;;;0.00;0.00;;;27.00;56.20;;;;;;5000974;28;20033;-75
2022/05/11 12:45:13;;;;;;;0.00;0.00;;;27.00;54.50;;;;;;5000959;28;20022;-77
2022/05/11 12:47:46;;;;;;;0.00;0.00;;;26.90;55.30;;;;;;4998850;28;20343;-77
2022/05/11 12:50:26;;;;;;;0.00;0.00;;;26.90;54.60;;;;;;4980851;28;20030;-78
2022/05/11 12:53:15;;;;;;;0.00;0.00;;;27.10;55.00;;;;;;5001534;28;20026;-76
2022/05/11 12:55:44;;;;;;;0.00;0.00;;;27.10;52.30;;;;;;5001369;28;20045;-76
2022/05/11 12:58:17;;;;;;;0.00;0.00;;;27.30;50.20;;;;;;5000807;28;20026;-76
2022/05/11 13:00:42;;;;;;;0.00;0.00;;;27.20;53.20;;;;;;4999963;28;20297;-76
2022/05/11 13:03:27;;;;;;;0.00;0.00;;;27.10;54.60;;;;;;5000312;28;20052;-77
2022/05/11 13:06:01;;;;;;;0.00;0.00;;;27.10;55.30;;;;;;5001189;28;20108;-78
2022/05/11 13:08:35;;;;;;;0.00;0.00;;;27.00;54.80;;;;;;5001343;28;20122;-75
2022/05/11 13:11:01;;;;;;;0.00;0.00;;;26.90;52.60;;;;;;5015884;28;20056;-76
2022/05/11 13:13:31;;;;;;;0.00;0.00;;;26.70;54.90;;;;;;5001122;28;20029;-77
2022/05/11 13:16:16;;;;;;;0.00;0.00;;;26.70;55.90;;;;;;5000888;28;20053;-77
2022/05/11 13:18:44;;;;;;;0.00;0.00;;;26.70;54.30;;;;;;5001066;28;20014;-76
2022/05/11 13:21:10;;;;;;;0.00;0.00;;;26.70;56.40;;;;;;5000518;28;20088;-75
2022/05/11 13:23:41;;;;;;;0.00;0.00;;;26.70;54.40;;;;;;5000656;28;20097;-76
2022/05/11 13:26:12;;;;;;;0.00;0.00;;;26.90;48.50;;;;;;5014198;28;20034;-77
2022/05/11 13:28:53;;;;;;;0.00;0.00;;;27.10;51.60;;;;;;5001216;28;20084;-77
2022/05/11 13:31:37;;;;;;;0.00;0.00;;;27.10;51.80;;;;;;4998983;28;20384;-78
2022/05/11 13:34:04;;;;;;;0.00;0.00;;;26.90;52.20;;;;;;4999663;28;20083;-78
2022/05/11 13:36:42;;;;;;;0.00;0.00;;;26.80;49.80;;;;;;5000526;28;20030;-78
2022/05/11 13:39:13;;;;;;;0.00;0.00;;;26.80;52.80;;;;;;5000315;28;20033;-79
2022/05/11 13:41:41;;;;;;;0.00;0.00;;;27.00;49.30;;;;;;5000757;28;20098;-79
2022/05/11 13:44:12;;;;;;;0.00;0.00;;;27.10;50.20;;;;;;4999918;28;20028;-79
2022/05/11 13:49:47;;;;;;;0.00;0.00;;;27.20;49.00;;;;;;5000368;28;20033;-76
2022/05/11 13:52:35;;;;;;;0.00;0.00;;;27.10;52.00;;;;;;5000086;28;20064;-76
2022/05/11 13:55:03;;;;;;;0.00;0.00;;;27.10;57.20;;;;;;4999418;28;20065;-76